sensor_id;sensor_type;location;lat;lon;timestamp;pressure;altitude;pressure_sealevel;temperature;humidity
20368;BME280;10343;52.402;9.796;2023-04-02T00:02:25;100630.09;;;14.44;43.43
20368;BME280;10343;52.402;9.796;2023-04-02T00:05:28;100632.91;;;13.72;44.51
20368;BME280;10343;52.402;9.796;2023-04-02T00:08:03;100636.41;;;13.22;45.20
20368;BME280;10343;52.402;9.796;2023-04-02T00:10:37;100642.41;;;13.54;44.61
20368;BME280;10343;52.402;9.796;2023-04-02T00:13:21;100640.78;;;14.89;42.23
20368;BME280;10343;52.402;9.796;2023-04-02T00:15:54;100655.88;;;13.74;44.08
20368;BME280;10343;52.402;9.796;2023-04-02T00:18:23;100669.25;;;13.98;43.95
20368;BME280;10343;52.402;9.796;2023-04-02T00:20:56;100661.66;;;14.33;43.31
20368;BME280;10343;52.402;9.796;2023-04-02T00:23:29;100666.16;;;14.55;42.53
20368;BME280;10343;52.402;9.796;2023-04-02T00:25:57;100667.25;;;14.73;42.60
20368;BME280;10343;52.402;9.796;2023-04-02T00:28:25;100675.34;;;14.24;42.93
20368;BME280;10343;52.402;9.796;2023-04-02T00:30:55;100670.97;;;14.91;41.60
20368;BME280;10343;52.402;9.796;2023-04-02T00:33:26;100689.28;;;13.85;42.40
20368;BME280;10343;52.402;9.796;2023-04-02T00:35:55;100686.34;;;14.16;43.16
20368;BME280;10343;52.402;9.796;2023-04-02T00:38:25;100688.75;;;14.68;41.66
20368;BME280;10343;52.402;9.796;2023-04-02T00:40:58;100690.03;;;14.36;42.78
20368;BME280;10343;52.402;9.796;2023-04-02T00:43:29;100690.91;;;13.38;43.60
20368;BME280;10343;52.402;9.796;2023-04-02T00:46:00;100688.75;;;15.13;41.75
20368;BME280;10343;52.402;9.796;2023-04-02T00:48:39;100703.41;;;13.36;43.95
20368;BME280;10343;52.402;9.796;2023-04-02T00:51:13;100712.78;;;13.73;42.68
20368;BME280;10343;52.402;9.796;2023-04-02T00:53:44;100719.78;;;13.51;43.26
20368;BME280;10343;52.402;9.796;2023-04-02T00:56:18;100726.69;;;14.53;41.76
20368;BME280;10343;52.402;9.796;2023-04-02T00:58:52;100726.41;;;13.11;43.27
20368;BME280;10343;52.402;9.796;2023-04-02T01:01:23;100731.00;;;13.05;43.40
20368;BME280;10343;52.402;9.796;2023-04-02T01:03:53;100738.75;;;13.92;42.24
20368;BME280;10343;52.402;9.796;2023-04-02T01:06:27;100736.16;;;12.55;44.40
20368;BME280;10343;52.402;9.796;2023-04-02T01:09:07;100747.25;;;13.53;42.85
20368;BME280;10343;52.402;9.796;2023-04-02T01:12:09;100742.25;;;14.41;41.32
20368;BME280;10343;52.402;9.796;2023-04-02T01:14:48;100743.53;;;14.31;41.13
20368;BME280;10343;52.402;9.796;2023-04-02T01:17:37;100740.59;;;13.39;42.95
20368;BME280;10343;52.402;9.796;2023-04-02T01:23:08;100752.22;;;14.13;41.82
20368;BME280;10343;52.402;9.796;2023-04-02T01:25:42;100754.59;;;14.20;42.50
20368;BME280;10343;52.402;9.796;2023-04-02T01:28:17;100759.75;;;14.25;42.35
20368;BME280;10343;52.402;9.796;2023-04-02T01:30:51;100767.50;;;14.07;41.44
20368;BME280;10343;52.402;9.796;2023-04-02T01:33:21;100769.03;;;14.15;40.77
20368;BME280;10343;52.402;9.796;2023-04-02T01:35:55;100776.25;;;15.28;39.67
20368;BME280;10343;52.402;9.796;2023-04-02T01:38:26;100778.63;;;14.44;40.39
20368;BME280;10343;52.402;9.796;2023-04-02T01:41:02;100788.94;;;14.53;40.45
20368;BME280;10343;52.402;9.796;2023-04-02T01:43:41;100790.09;;;13.72;41.09
20368;BME280;10343;52.402;9.796;2023-04-02T01:46:27;100793.50;;;13.50;41.60
20368;BME280;10343;52.402;9.796;2023-04-02T01:48:56;100806.66;;;13.27;42.46
20368;BME280;10343;52.402;9.796;2023-04-02T01:51:26;100814.25;;;13.11;42.61
20368;BME280;10343;52.402;9.796;2023-04-02T01:53:57;100815.63;;;13.24;41.98
20368;BME280;10343;52.402;9.796;2023-04-02T01:56:28;100809.16;;;13.04;41.74
20368;BME280;10343;52.402;9.796;2023-04-02T01:58:58;100822.13;;;13.96;40.93
20368;BME280;10343;52.402;9.796;2023-04-02T02:01:32;100833.31;;;12.97;41.76
20368;BME280;10343;52.402;9.796;2023-04-02T02:04:03;100833.47;;;13.75;41.03
20368;BME280;10343;52.402;9.796;2023-04-02T02:06:31;100835.22;;;13.50;41.69
20368;BME280;10343;52.402;9.796;2023-04-02T02:09:01;100845.47;;;13.35;41.48
20368;BME280;10343;52.402;9.796;2023-04-02T02:11:33;100846.84;;;12.89;42.63
20368;BME280;10343;52.402;9.796;2023-04-02T02:14:08;100845.59;;;13.29;42.00
20368;BME280;10343;52.402;9.796;2023-04-02T02:16:41;100852.78;;;13.27;41.73
20368;BME280;10343;52.402;9.796;2023-04-02T02:19:18;100851.72;;;13.88;41.17
20368;BME280;10343;52.402;9.796;2023-04-02T02:21:50;100855.59;;;14.04;40.54
20368;BME280;10343;52.402;9.796;2023-04-02T02:24:21;100857.91;;;14.64;39.64
20368;BME280;10343;52.402;9.796;2023-04-02T02:27:05;100868.63;;;13.87;39.99
20368;BME280;10343;52.402;9.796;2023-04-02T02:29:37;100878.09;;;13.42;41.13
20368;BME280;10343;52.402;9.796;2023-04-02T02:32:09;100882.25;;;14.04;39.81
20368;BME280;10343;52.402;9.796;2023-04-02T02:34:45;100879.03;;;12.50;41.52
20368;BME280;10343;52.402;9.796;2023-04-02T02:37:17;100898.59;;;12.79;41.22
20368;BME280;10343;52.402;9.796;2023-04-02T02:39:51;100893.84;;;13.20;40.83
20368;BME280;10343;52.402;9.796;2023-04-02T02:42:26;100899.06;;;12.30;42.63
20368;BME280;10343;52.402;9.796;2023-04-02T02:44:59;100893.06;;;13.46;40.84
20368;BME280;10343;52.402;9.796;2023-04-02T02:47:33;100905.53;;;12.20;43.05
20368;BME280;10343;52.402;9.796;2023-04-02T02:50:11;100911.09;;;13.06;41.09
20368;BME280;10343;52.402;9.796;2023-04-02T02:52:45;100916.19;;;13.72;40.61
20368;BME280;10343;52.402;9.796;2023-04-02T02:55:16;100925.88;;;13.17;40.77
20368;BME280;10343;52.402;9.796;2023-04-02T02:58:14;100926.31;;;12.70;41.72
20368;BME280;10343;52.402;9.796;2023-04-02T03:01:05;100928.88;;;13.34;41.02
20368;BME280;10343;52.402;9.796;2023-04-02T03:03:37;100931.50;;;13.92;39.91
20368;BME280;10343;52.402;9.796;2023-04-02T03:06:09;100942.88;;;13.42;40.13
20368;BME280;10343;52.402;9.796;2023-04-02T03:08:48;100941.81;;;13.76;39.24
20368;BME280;10343;52.402;9.796;2023-04-02T03:11:26;100947.22;;;13.45;40.04
20368;BME280;10343;52.402;9.796;2023-04-02T03:14:07;100956.44;;;13.63;40.06
20368;BME280;10343;52.402;9.796;2023-04-02T03:16:44;100955.53;;;14.44;38.97
20368;BME280;10343;52.402;9.796;2023-04-02T03:19:24;100969.97;;;13.57;39.18
20368;BME280;10343;52.402;9.796;2023-04-02T03:21:58;100969.44;;;13.14;40.03
20368;BME280;10343;52.402;9.796;2023-04-02T03:24:36;100976.56;;;12.81;40.88
20368;BME280;10343;52.402;9.796;2023-04-02T03:27:12;100974.91;;;12.77;40.37
20368;BME280;10343;52.402;9.796;2023-04-02T03:29:45;100990.44;;;12.26;41.45
20368;BME280;10343;52.402;9.796;2023-04-02T03:32:21;100985.81;;;13.30;39.80
20368;BME280;10343;52.402;9.796;2023-04-02T03:34:54;100996.13;;;12.11;41.00
20368;BME280;10343;52.402;9.796;2023-04-02T03:37:29;101001.88;;;13.87;38.76
20368;BME280;10343;52.402;9.796;2023-04-02T03:40:01;101002.31;;;13.45;38.64
20368;BME280;10343;52.402;9.796;2023-04-02T03:42:38;101002.19;;;13.48;38.85
20368;BME280;10343;52.402;9.796;2023-04-02T03:45:12;101023.34;;;13.21;38.89
20368;BME280;10343;52.402;9.796;2023-04-02T03:47:46;101015.16;;;13.60;38.72
20368;BME280;10343;52.402;9.796;2023-04-02T03:50:24;101026.06;;;12.88;40.02
20368;BME280;10343;52.402;9.796;2023-04-02T03:52:58;101029.66;;;13.18;38.87
20368;BME280;10343;52.402;9.796;2023-04-02T03:55:29;101037.25;;;13.01;39.19
20368;BME280;10343;52.402;9.796;2023-04-02T03:58:01;101041.72;;;12.99;39.27
20368;BME280;10343;52.402;9.796;2023-04-02T04:00:37;101051.00;;;12.84;39.19
20368;BME280;10343;52.402;9.796;2023-04-02T04:03:10;101048.22;;;13.21;38.92
20368;BME280;10343;52.402;9.796;2023-04-02T04:05:47;101061.34;;;12.60;39.61
20368;BME280;10343;52.402;9.796;2023-04-02T04:08:20;101068.97;;;12.76;39.34
20368;BME280;10343;52.402;9.796;2023-04-02T04:10:51;101072.44;;;12.05;41.00
20368;BME280;10343;52.402;9.796;2023-04-02T04:13:24;101076.72;;;12.83;39.46
20368;BME280;10343;52.402;9.796;2023-04-02T04:15:59;101078.84;;;13.98;37.05
20368;BME280;10343;52.402;9.796;2023-04-02T04:18:33;101075.53;;;13.28;38.80
20368;BME280;10343;52.402;9.796;2023-04-02T04:21:15;101079.25;;;14.14;37.29
20368;BME280;10343;52.402;9.796;2023-04-02T04:24:06;101101.34;;;12.57;38.78
20368;BME280;10343;52.402;9.796;2023-04-02T04:26:39;101093.94;;;11.93;40.22
20368;BME280;10343;52.402;9.796;2023-04-02T04:29:18;101100.16;;;11.92;40.24
20368;BME280;10343;52.402;9.796;2023-04-02T04:31:54;101103.69;;;12.33;39.92
20368;BME280;10343;52.402;9.796;2023-04-02T04:34:30;101108.03;;;12.73;38.76
20368;BME280;10343;52.402;9.796;2023-04-02T04:37:05;101108.56;;;11.27;40.41
20368;BME280;10343;52.402;9.796;2023-04-02T04:39:41;101123.06;;;11.99;39.76
20368;BME280;10343;52.402;9.796;2023-04-02T04:42:16;101120.53;;;11.93;39.68
20368;BME280;10343;52.402;9.796;2023-04-02T04:44:50;101127.72;;;11.88;39.38
20368;BME280;10343;52.402;9.796;2023-04-02T04:47:25;101127.78;;;13.32;38.10
20368;BME280;10343;52.402;9.796;2023-04-02T04:50:02;101129.97;;;11.64;40.27
20368;BME280;10343;52.402;9.796;2023-04-02T04:52:39;101140.84;;;13.08;38.06
20368;BME280;10343;52.402;9.796;2023-04-02T04:55:23;101154.41;;;11.38;40.15
20368;BME280;10343;52.402;9.796;2023-04-02T04:57:54;101158.47;;;11.56;39.94
20368;BME280;10343;52.402;9.796;2023-04-02T05:00:27;101156.72;;;12.00;39.23
20368;BME280;10343;52.402;9.796;2023-04-02T05:02:59;101166.47;;;11.98;39.61
20368;BME280;10343;52.402;9.796;2023-04-02T05:05:30;101172.13;;;13.33;37.14
20368;BME280;10343;52.402;9.796;2023-04-02T05:08:10;101175.25;;;13.51;37.03
20368;BME280;10343;52.402;9.796;2023-04-02T05:10:44;101185.19;;;12.73;37.24
20368;BME280;10343;52.402;9.796;2023-04-02T05:13:17;101189.19;;;12.54;37.66
20368;BME280;10343;52.402;9.796;2023-04-02T05:15:51;101197.16;;;13.26;37.24
20368;BME280;10343;52.402;9.796;2023-04-02T05:18:25;101198.09;;;12.89;37.50
20368;BME280;10343;52.402;9.796;2023-04-02T05:20:59;101195.47;;;13.23;36.88
20368;BME280;10343;52.402;9.796;2023-04-02T05:23:37;101203.72;;;12.77;37.21
20368;BME280;10343;52.402;9.796;2023-04-02T05:26:14;101212.69;;;12.72;37.33
20368;BME280;10343;52.402;9.796;2023-04-02T05:28:46;101210.50;;;12.90;37.25
20368;BME280;10343;52.402;9.796;2023-04-02T05:31:21;101223.63;;;13.68;36.08
20368;BME280;10343;52.402;9.796;2023-04-02T05:33:53;101230.09;;;13.58;36.01
20368;BME280;10343;52.402;9.796;2023-04-02T05:36:23;101233.75;;;13.54;36.07
20368;BME280;10343;52.402;9.796;2023-04-02T05:38:57;101238.88;;;12.91;36.77
20368;BME280;10343;52.402;9.796;2023-04-02T05:41:36;101234.72;;;12.40;37.29
20368;BME280;10343;52.402;9.796;2023-04-02T05:44:09;101242.31;;;12.96;36.91
20368;BME280;10343;52.402;9.796;2023-04-02T05:46:44;101243.63;;;12.37;37.75
20368;BME280;10343;52.402;9.796;2023-04-02T05:49:20;101254.69;;;13.33;36.12
20368;BME280;10343;52.402;9.796;2023-04-02T05:51:54;101256.34;;;12.23;37.45
20368;BME280;10343;52.402;9.796;2023-04-02T05:54:27;101258.97;;;13.03;36.01
20368;BME280;10343;52.402;9.796;2023-04-02T05:57:02;101263.38;;;13.43;36.19
20368;BME280;10343;52.402;9.796;2023-04-02T05:59:35;101268.69;;;13.05;36.17
20368;BME280;10343;52.402;9.796;2023-04-02T06:02:07;101272.44;;;13.33;35.74
20368;BME280;10343;52.402;9.796;2023-04-02T06:04:44;101279.75;;;13.93;35.27
20368;BME280;10343;52.402;9.796;2023-04-02T06:07:18;101289.59;;;13.58;35.77
20368;BME280;10343;52.402;9.796;2023-04-02T06:09:55;101293.03;;;13.26;36.10
20368;BME280;10343;52.402;9.796;2023-04-02T06:12:28;101279.78;;;12.87;36.90
20368;BME280;10343;52.402;9.796;2023-04-02T06:14:59;101292.53;;;13.48;35.91
20368;BME280;10343;52.402;9.796;2023-04-02T06:17:32;101303.03;;;13.16;36.67
20368;BME280;10343;52.402;9.796;2023-04-02T06:20:13;101311.03;;;13.87;35.01
20368;BME280;10343;52.402;9.796;2023-04-02T06:22:47;101318.63;;;13.69;35.31
20368;BME280;10343;52.402;9.796;2023-04-02T06:25:21;101321.22;;;14.05;35.12
20368;BME280;10343;52.402;9.796;2023-04-02T06:27:54;101326.59;;;14.04;35.60
20368;BME280;10343;52.402;9.796;2023-04-02T06:30:27;101334.03;;;13.19;36.43
20368;BME280;10343;52.402;9.796;2023-04-02T06:32:58;101342.44;;;13.75;35.60
20368;BME280;10343;52.402;9.796;2023-04-02T06:35:28;101347.78;;;14.08;35.24
20368;BME280;10343;52.402;9.796;2023-04-02T06:38:03;101350.84;;;13.95;35.26
20368;BME280;10343;52.402;9.796;2023-04-02T06:40:39;101349.88;;;14.30;35.01
20368;BME280;10343;52.402;9.796;2023-04-02T06:43:37;101366.66;;;13.66;35.36
20368;BME280;10343;52.402;9.796;2023-04-02T06:46:20;101361.16;;;12.97;36.96
20368;BME280;10343;52.402;9.796;2023-04-02T06:49:12;101349.72;;;14.98;34.09
20368;BME280;10343;52.402;9.796;2023-04-02T06:51:43;101353.59;;;15.16;33.76
20368;BME280;10343;52.402;9.796;2023-04-02T06:54:13;101370.47;;;14.25;34.26
20368;BME280;10343;52.402;9.796;2023-04-02T06:56:46;101372.28;;;13.54;35.75
20368;BME280;10343;52.402;9.796;2023-04-02T06:59:30;101381.88;;;13.22;36.89
20368;BME280;10343;52.402;9.796;2023-04-02T07:02:02;101382.41;;;13.75;35.90
20368;BME280;10343;52.402;9.796;2023-04-02T07:04:32;101394.03;;;14.07;35.65
20368;BME280;10343;52.402;9.796;2023-04-02T07:07:01;101393.13;;;14.41;35.24
20368;BME280;10343;52.402;9.796;2023-04-02T07:09:32;101397.50;;;13.76;35.74
20368;BME280;10343;52.402;9.796;2023-04-02T07:12:09;101397.34;;;14.49;35.42
20368;BME280;10343;52.402;9.796;2023-04-02T07:14:38;101397.19;;;15.16;34.26
20368;BME280;10343;52.402;9.796;2023-04-02T07:17:07;101391.25;;;15.63;33.55
20368;BME280;10343;52.402;9.796;2023-04-02T07:19:36;101408.81;;;15.15;34.03
20368;BME280;10343;52.402;9.796;2023-04-02T07:22:04;101425.09;;;14.43;35.04
20368;BME280;10343;52.402;9.796;2023-04-02T07:24:37;101421.69;;;15.01;34.60
20368;BME280;10343;52.402;9.796;2023-04-02T07:27:04;101425.84;;;15.96;33.03
20368;BME280;10343;52.402;9.796;2023-04-02T07:29:34;101431.38;;;15.05;33.95
20368;BME280;10343;52.402;9.796;2023-04-02T07:32:03;101439.88;;;14.22;35.42
20368;BME280;10343;52.402;9.796;2023-04-02T07:34:31;101440.72;;;14.57;34.62
20368;BME280;10343;52.402;9.796;2023-04-02T07:36:58;101443.28;;;13.94;36.50
20368;BME280;10343;52.402;9.796;2023-04-02T07:39:28;101443.06;;;14.02;36.29
20368;BME280;10343;52.402;9.796;2023-04-02T07:41:58;101449.31;;;13.24;36.96
20368;BME280;10343;52.402;9.796;2023-04-02T07:44:26;101450.50;;;15.21;34.33
20368;BME280;10343;52.402;9.796;2023-04-02T07:46:56;101459.78;;;14.76;35.14
20368;BME280;10343;52.402;9.796;2023-04-02T07:49:24;101460.09;;;14.65;35.30
20368;BME280;10343;52.402;9.796;2023-04-02T07:51:52;101473.56;;;14.26;35.54
20368;BME280;10343;52.402;9.796;2023-04-02T07:54:20;101475.81;;;13.71;36.56
20368;BME280;10343;52.402;9.796;2023-04-02T07:56:48;101480.72;;;14.24;35.72
20368;BME280;10343;52.402;9.796;2023-04-02T07:59:18;101475.81;;;15.07;34.65
20368;BME280;10343;52.402;9.796;2023-04-02T08:01:46;101489.06;;;14.44;35.04
20368;BME280;10343;52.402;9.796;2023-04-02T08:04:17;101493.06;;;14.28;35.59
20368;BME280;10343;52.402;9.796;2023-04-02T08:06:47;101503.16;;;14.84;34.91
20368;BME280;10343;52.402;9.796;2023-04-02T08:09:16;101507.88;;;14.74;34.61
20368;BME280;10343;52.402;9.796;2023-04-02T08:11:44;101509.63;;;14.75;34.80
20368;BME280;10343;52.402;9.796;2023-04-02T08:14:12;101509.16;;;14.25;35.55
20368;BME280;10343;52.402;9.796;2023-04-02T08:16:45;101513.94;;;14.81;34.97
20368;BME280;10343;52.402;9.796;2023-04-02T08:19:13;101516.13;;;14.98;34.79
20368;BME280;10343;52.402;9.796;2023-04-02T08:21:43;101517.44;;;16.03;33.00
20368;BME280;10343;52.402;9.796;2023-04-02T08:24:11;101531.09;;;15.35;33.56
20368;BME280;10343;52.402;9.796;2023-04-02T08:26:39;101528.75;;;15.84;33.19
20368;BME280;10343;52.402;9.796;2023-04-02T08:29:10;101539.59;;;14.87;34.59
20368;BME280;10343;52.402;9.796;2023-04-02T08:31:39;101543.56;;;15.03;34.21
20368;BME280;10343;52.402;9.796;2023-04-02T08:34:07;101551.38;;;14.43;35.39
20368;BME280;10343;52.402;9.796;2023-04-02T08:36:36;101551.91;;;14.22;35.45
20368;BME280;10343;52.402;9.796;2023-04-02T08:39:07;101553.06;;;14.46;35.22
20368;BME280;10343;52.402;9.796;2023-04-02T08:41:41;101563.50;;;15.23;34.27
20368;BME280;10343;52.402;9.796;2023-04-02T08:44:19;101565.72;;;15.38;34.00
20368;BME280;10343;52.402;9.796;2023-04-02T08:46:51;101555.88;;;15.40;34.02
20368;BME280;10343;52.402;9.796;2023-04-02T08:49:27;101571.69;;;14.49;34.78
20368;BME280;10343;52.402;9.796;2023-04-02T08:51:58;101574.03;;;14.60;35.20
20368;BME280;10343;52.402;9.796;2023-04-02T08:54:29;101580.56;;;15.17;34.41
20368;BME280;10343;52.402;9.796;2023-04-02T08:57:00;101583.09;;;14.54;34.76
20368;BME280;10343;52.402;9.796;2023-04-02T08:59:33;101588.69;;;14.81;34.77
20368;BME280;10343;52.402;9.796;2023-04-02T09:02:12;101590.25;;;15.21;34.68
20368;BME280;10343;52.402;9.796;2023-04-02T09:04:47;101599.03;;;15.58;33.57
20368;BME280;10343;52.402;9.796;2023-04-02T09:07:16;101601.47;;;15.01;33.77
20368;BME280;10343;52.402;9.796;2023-04-02T09:09:47;101593.53;;;14.65;34.12
20368;BME280;10343;52.402;9.796;2023-04-02T09:12:18;101601.47;;;15.01;33.95
20368;BME280;10343;52.402;9.796;2023-04-02T09:14:54;101616.75;;;15.29;33.75
20368;BME280;10343;52.402;9.796;2023-04-02T09:17:26;101620.28;;;14.62;34.66
20368;BME280;10343;52.402;9.796;2023-04-02T09:20:02;101626.75;;;14.14;35.00
20368;BME280;10343;52.402;9.796;2023-04-02T09:22:34;101625.31;;;14.74;34.50
20368;BME280;10343;52.402;9.796;2023-04-02T09:25:05;101630.84;;;15.34;33.32
20368;BME280;10343;52.402;9.796;2023-04-02T09:27:38;101639.66;;;14.70;34.14
20368;BME280;10343;52.402;9.796;2023-04-02T09:30:18;101638.34;;;14.51;34.52
20368;BME280;10343;52.402;9.796;2023-04-02T09:32:51;101642.53;;;14.97;33.76
20368;BME280;10343;52.402;9.796;2023-04-02T09:35:22;101651.19;;;15.71;33.04
20368;BME280;10343;52.402;9.796;2023-04-02T09:38:18;101656.28;;;15.81;32.84
20368;BME280;10343;52.402;9.796;2023-04-02T09:40:57;101656.19;;;15.84;32.53
20368;BME280;10343;52.402;9.796;2023-04-02T09:43:26;101656.41;;;14.77;33.78
20368;BME280;10343;52.402;9.796;2023-04-02T09:45:57;101652.38;;;14.59;33.73
20368;BME280;10343;52.402;9.796;2023-04-02T09:48:27;101660.59;;;15.86;32.86
20368;BME280;10343;52.402;9.796;2023-04-02T09:51:05;101656.03;;;16.18;31.77
20368;BME280;10343;52.402;9.796;2023-04-02T09:53:35;101676.97;;;16.05;32.09
20368;BME280;10343;52.402;9.796;2023-04-02T09:56:09;101678.66;;;15.12;33.18
20368;BME280;10343;52.402;9.796;2023-04-02T09:58:38;101679.25;;;15.88;32.61
20368;BME280;10343;52.402;9.796;2023-04-02T10:01:24;101691.59;;;16.50;31.39
20368;BME280;10343;52.402;9.796;2023-04-02T10:03:53;101692.16;;;16.33;31.99
20368;BME280;10343;52.402;9.796;2023-04-02T10:06:21;101700.25;;;15.37;33.38
20368;BME280;10343;52.402;9.796;2023-04-02T10:08:50;101696.22;;;16.73;31.66
20368;BME280;10343;52.402;9.796;2023-04-02T10:11:24;101705.59;;;15.37;32.72
20368;BME280;10343;52.402;9.796;2023-04-02T10:14:15;101716.53;;;15.28;32.55
20368;BME280;10343;52.402;9.796;2023-04-02T10:16:48;101708.78;;;16.15;31.55
20368;BME280;10343;52.402;9.796;2023-04-02T10:19:24;101714.19;;;16.13;31.15
20368;BME280;10343;52.402;9.796;2023-04-02T10:21:54;101717.19;;;16.02;31.49
20368;BME280;10343;52.402;9.796;2023-04-02T10:24:22;101709.44;;;17.06;29.98
20368;BME280;10343;52.402;9.796;2023-04-02T10:27:03;101722.44;;;16.35;31.21
20368;BME280;10343;52.402;9.796;2023-04-02T10:29:46;101722.75;;;17.09;30.29
20368;BME280;10343;52.402;9.796;2023-04-02T10:32:21;101726.63;;;17.26;30.48
20368;BME280;10343;52.402;9.796;2023-04-02T10:34:55;101726.56;;;17.29;30.37
20368;BME280;10343;52.402;9.796;2023-04-02T10:37:56;101721.44;;;18.21;28.89
20368;BME280;10343;52.402;9.796;2023-04-02T10:40:33;101718.03;;;18.39;28.57
20368;BME280;10343;52.402;9.796;2023-04-02T10:46:21;101723.25;;;19.31;27.30
20368;BME280;10343;52.402;9.796;2023-04-02T10:48:59;101731.69;;;18.33;28.04
20368;BME280;10343;52.402;9.796;2023-04-02T10:51:35;101721.03;;;19.41;26.81
20368;BME280;10343;52.402;9.796;2023-04-02T10:54:17;101727.75;;;18.20;28.05
20368;BME280;10343;52.402;9.796;2023-04-02T10:56:51;101741.13;;;16.65;29.74
20368;BME280;10343;52.402;9.796;2023-04-02T10:59:23;101749.84;;;16.43;30.26
20368;BME280;10343;52.402;9.796;2023-04-02T11:01:56;101742.41;;;17.35;29.50
20368;BME280;10343;52.402;9.796;2023-04-02T11:04:28;101745.19;;;18.08;29.08
20368;BME280;10343;52.402;9.796;2023-04-02T11:06:59;101755.63;;;15.98;31.60
20368;BME280;10343;52.402;9.796;2023-04-02T11:09:42;101759.28;;;15.95;31.43
20368;BME280;10343;52.402;9.796;2023-04-02T11:12:19;101760.69;;;16.67;29.98
20368;BME280;10343;52.402;9.796;2023-04-02T11:14:52;101762.50;;;17.22;29.34
20368;BME280;10343;52.402;9.796;2023-04-02T11:17:22;101757.56;;;18.58;27.93
20368;BME280;10343;52.402;9.796;2023-04-02T11:19:50;101759.59;;;17.55;28.06
20368;BME280;10343;52.402;9.796;2023-04-02T11:22:20;101760.25;;;18.12;27.59
20368;BME280;10343;52.402;9.796;2023-04-02T11:24:50;101763.75;;;17.89;27.85
20368;BME280;10343;52.402;9.796;2023-04-02T11:27:24;101757.66;;;18.78;26.96
20368;BME280;10343;52.402;9.796;2023-04-02T11:30:01;101762.88;;;19.05;26.99
20368;BME280;10343;52.402;9.796;2023-04-02T11:32:34;101751.22;;;19.68;26.08
20368;BME280;10343;52.402;9.796;2023-04-02T11:44:23;101777.78;;;17.72;28.15
20368;BME280;10343;52.402;9.796;2023-04-02T11:47:13;101795.03;;;16.53;29.65
20368;BME280;10343;52.402;9.796;2023-04-02T11:49:59;101800.75;;;16.70;29.93
20368;BME280;10343;52.402;9.796;2023-04-02T11:52:31;101800.63;;;15.48;31.23
20368;BME280;10343;52.402;9.796;2023-04-02T11:55:30;101797.72;;;15.57;31.20
20368;BME280;10343;52.402;9.796;2023-04-02T11:58:20;101795.59;;;14.99;31.80
20368;BME280;10343;52.402;9.796;2023-04-02T12:06:44;101797.72;;;15.57;30.76
20368;BME280;10343;52.402;9.796;2023-04-02T12:09:20;101806.75;;;15.53;31.28
20368;BME280;10343;52.402;9.796;2023-04-02T12:11:50;101798.59;;;16.53;30.20
20368;BME280;10343;52.402;9.796;2023-04-02T12:14:31;101800.31;;;16.84;29.70
20368;BME280;10343;52.402;9.796;2023-04-02T12:17:01;101804.38;;;17.53;28.54
20368;BME280;10343;52.402;9.796;2023-04-02T12:19:36;101803.50;;;16.07;30.74
20368;BME280;10343;52.402;9.796;2023-04-02T12:22:04;101807.72;;;16.47;30.30
20368;BME280;10343;52.402;9.796;2023-04-02T12:24:32;101814.53;;;15.26;31.26
20368;BME280;10343;52.402;9.796;2023-04-02T12:27:07;101816.09;;;16.35;30.44
20368;BME280;10343;52.402;9.796;2023-04-02T12:29:41;101804.91;;;17.62;28.62
20368;BME280;10343;52.402;9.796;2023-04-02T12:32:19;101816.66;;;16.76;30.06
20368;BME280;10343;52.402;9.796;2023-04-02T12:34:50;101808.50;;;17.36;29.53
20368;BME280;10343;52.402;9.796;2023-04-02T12:37:20;101804.34;;;18.98;27.42
20368;BME280;10343;52.402;9.796;2023-04-02T12:39:56;101789.06;;;20.44;25.80
20368;BME280;10343;52.402;9.796;2023-04-02T12:42:26;101792.06;;;20.17;26.01
20368;BME280;10343;52.402;9.796;2023-04-02T12:44:54;101786.69;;;20.17;25.84
20368;BME280;10343;52.402;9.796;2023-04-02T12:47:22;101791.13;;;20.77;25.05
20368;BME280;10343;52.402;9.796;2023-04-02T12:49:52;101794.25;;;20.68;24.81
20368;BME280;10343;52.402;9.796;2023-04-02T12:52:21;101793.00;;;20.75;25.04
20368;BME280;10343;52.402;9.796;2023-04-02T12:54:51;101793.25;;;20.31;25.25
20368;BME280;10343;52.402;9.796;2023-04-02T12:57:36;101799.53;;;18.38;26.91
20368;BME280;10343;52.402;9.796;2023-04-02T13:00:33;101807.19;;;18.71;27.49
20368;BME280;10343;52.402;9.796;2023-04-02T13:03:23;101798.00;;;18.55;28.01
20368;BME280;10343;52.402;9.796;2023-04-02T13:05:56;101800.00;;;19.17;26.88
20368;BME280;10343;52.402;9.796;2023-04-02T13:08:25;101794.44;;;21.19;24.83
20368;BME280;10343;52.402;9.796;2023-04-02T13:10:55;101804.59;;;18.46;27.69
20368;BME280;10343;52.402;9.796;2023-04-02T13:13:27;101800.94;;;19.80;26.63
20368;BME280;10343;52.402;9.796;2023-04-02T13:16:02;101808.78;;;19.64;26.51
20368;BME280;10343;52.402;9.796;2023-04-02T13:18:31;101814.44;;;17.71;28.99
20368;BME280;10343;52.402;9.796;2023-04-02T13:21:02;101816.94;;;16.97;29.34
20368;BME280;10343;52.402;9.796;2023-04-02T13:23:33;101825.66;;;16.74;30.24
20368;BME280;10343;52.402;9.796;2023-04-02T13:26:14;101812.31;;;16.42;30.90
20368;BME280;10343;52.402;9.796;2023-04-02T13:28:49;101814.25;;;18.03;28.82
20368;BME280;10343;52.402;9.796;2023-04-02T13:31:21;101823.66;;;15.88;30.56
20368;BME280;10343;52.402;9.796;2023-04-02T13:33:49;101816.53;;;17.36;29.26
20368;BME280;10343;52.402;9.796;2023-04-02T13:36:18;101818.28;;;17.64;28.80
20368;BME280;10343;52.402;9.796;2023-04-02T13:38:47;101819.16;;;17.64;28.72
20368;BME280;10343;52.402;9.796;2023-04-02T13:41:18;101826.97;;;16.90;28.93
20368;BME280;10343;52.402;9.796;2023-04-02T13:43:49;101831.53;;;17.15;29.07
20368;BME280;10343;52.402;9.796;2023-04-02T13:46:20;101833.84;;;17.26;28.37
20368;BME280;10343;52.402;9.796;2023-04-02T13:48:50;101827.69;;;18.74;26.62